sensor_id;sensor_type;location;lat;lon;timestamp;P1;durP1;ratioP1;P2;durP2;ratioP2
46463;SDS011;32161;48.148;-1.554;2023-04-05T00:00:28;10.25;;;6.57;;
46463;SDS011;32161;48.148;-1.554;2023-04-05T00:02:57;10.50;;;6.82;;
46463;SDS011;32161;48.148;-1.554;2023-04-05T00:05:25;10.43;;;7.22;;
46463;SDS011;32161;48.148;-1.554;2023-04-05T00:07:55;8.73;;;6.60;;
46463;SDS011;32161;48.148;-1.554;2023-04-05T00:10:24;7.78;;;6.43;;
46463;SDS011;32161;48.148;-1.554;2023-04-05T00:12:53;9.02;;;6.25;;
46463;SDS011;32161;48.148;-1.554;2023-04-05T00:15:20;9.18;;;6.80;;
46463;SDS011;32161;48.148;-1.554;2023-04-05T00:17:50;8.75;;;6.18;;
46463;SDS011;32161;48.148;-1.554;2023-04-05T00:20:18;8.48;;;7.20;;
46463;SDS011;32161;48.148;-1.554;2023-04-05T00:22:46;15.60;;;8.68;;
46463;SDS011;32161;48.148;-1.554;2023-04-05T00:25:15;16.55;;;10.13;;
46463;SDS011;32161;48.148;-1.554;2023-04-05T00:27:43;13.50;;;9.73;;
46463;SDS011;32161;48.148;-1.554;2023-04-05T00:30:11;13.80;;;9.50;;
46463;SDS011;32161;48.148;-1.554;2023-04-05T00:32:46;12.50;;;7.57;;
46463;SDS011;32161;48.148;-1.554;2023-04-05T00:35:15;10.85;;;8.35;;
46463;SDS011;32161;48.148;-1.554;2023-04-05T00:37:43;9.15;;;7.70;;
46463;SDS011;32161;48.148;-1.554;2023-04-05T00:40:10;9.00;;;7.60;;
46463;SDS011;32161;48.148;-1.554;2023-04-05T00:42:38;9.27;;;7.47;;
46463;SDS011;32161;48.148;-1.554;2023-04-05T00:45:06;10.55;;;7.40;;
46463;SDS011;32161;48.148;-1.554;2023-04-05T00:47:34;14.13;;;7.45;;
46463;SDS011;32161;48.148;-1.554;2023-04-05T00:50:02;9.88;;;8.02;;
46463;SDS011;32161;48.148;-1.554;2023-04-05T00:52:32;11.20;;;8.55;;
46463;SDS011;32161;48.148;-1.554;2023-04-05T00:55:02;13.82;;;8.38;;
46463;SDS011;32161;48.148;-1.554;2023-04-05T00:57:32;17.42;;;8.40;;
46463;SDS011;32161;48.148;-1.554;2023-04-05T01:00:03;13.32;;;8.30;;
46463;SDS011;32161;48.148;-1.554;2023-04-05T01:02:39;12.77;;;9.38;;
46463;SDS011;32161;48.148;-1.554;2023-04-05T01:05:17;18.85;;;10.48;;
46463;SDS011;32161;48.148;-1.554;2023-04-05T01:08:09;8.90;;;7.22;;
46463;SDS011;32161;48.148;-1.554;2023-04-05T01:10:43;10.63;;;8.98;;
46463;SDS011;32161;48.148;-1.554;2023-04-05T01:13:19;9.18;;;7.65;;
46463;SDS011;32161;48.148;-1.554;2023-04-05T01:15:48;11.13;;;8.23;;
46463;SDS011;32161;48.148;-1.554;2023-04-05T01:18:15;10.65;;;8.73;;
46463;SDS011;32161;48.148;-1.554;2023-04-05T01:20:48;11.70;;;8.32;;
46463;SDS011;32161;48.148;-1.554;2023-04-05T01:23:39;12.10;;;7.95;;
46463;SDS011;32161;48.148;-1.554;2023-04-05T01:26:30;13.15;;;8.77;;
46463;SDS011;32161;48.148;-1.554;2023-04-05T01:32:09;8.65;;;7.35;;
46463;SDS011;32161;48.148;-1.554;2023-04-05T01:34:48;11.27;;;8.52;;
46463;SDS011;32161;48.148;-1.554;2023-04-05T01:37:22;12.98;;;8.30;;
46463;SDS011;32161;48.148;-1.554;2023-04-05T01:39:55;8.88;;;7.40;;
46463;SDS011;32161;48.148;-1.554;2023-04-05T01:42:24;11.68;;;8.57;;
46463;SDS011;32161;48.148;-1.554;2023-04-05T01:44:55;10.38;;;7.53;;
46463;SDS011;32161;48.148;-1.554;2023-04-05T01:47:24;13.20;;;8.45;;
46463;SDS011;32161;48.148;-1.554;2023-04-05T01:49:52;15.85;;;9.32;;
46463;SDS011;32161;48.148;-1.554;2023-04-05T01:52:19;13.32;;;9.50;;
46463;SDS011;32161;48.148;-1.554;2023-04-05T01:54:47;12.73;;;9.45;;
46463;SDS011;32161;48.148;-1.554;2023-04-05T01:57:15;13.32;;;8.95;;
46463;SDS011;32161;48.148;-1.554;2023-04-05T01:59:43;12.63;;;8.60;;
46463;SDS011;32161;48.148;-1.554;2023-04-05T02:02:12;13.18;;;9.35;;
46463;SDS011;32161;48.148;-1.554;2023-04-05T02:04:39;15.60;;;9.77;;
46463;SDS011;32161;48.148;-1.554;2023-04-05T02:07:07;17.15;;;9.90;;
46463;SDS011;32161;48.148;-1.554;2023-04-05T02:09:35;17.55;;;11.15;;
46463;SDS011;32161;48.148;-1.554;2023-04-05T02:12:02;17.25;;;11.27;;
46463;SDS011;32161;48.148;-1.554;2023-04-05T02:14:30;18.88;;;9.85;;
46463;SDS011;32161;48.148;-1.554;2023-04-05T02:16:58;14.75;;;9.07;;
46463;SDS011;32161;48.148;-1.554;2023-04-05T02:19:28;15.02;;;8.98;;
46463;SDS011;32161;48.148;-1.554;2023-04-05T02:22:01;12.77;;;9.05;;
46463;SDS011;32161;48.148;-1.554;2023-04-05T02:24:29;11.25;;;8.23;;
46463;SDS011;32161;48.148;-1.554;2023-04-05T02:26:56;11.35;;;8.38;;
46463;SDS011;32161;48.148;-1.554;2023-04-05T02:29:24;10.20;;;7.45;;
46463;SDS011;32161;48.148;-1.554;2023-04-05T02:31:51;10.95;;;8.38;;
46463;SDS011;32161;48.148;-1.554;2023-04-05T02:34:19;9.95;;;7.53;;
46463;SDS011;32161;48.148;-1.554;2023-04-05T02:36:49;10.13;;;7.53;;
46463;SDS011;32161;48.148;-1.554;2023-04-05T02:39:17;9.05;;;8.05;;
46463;SDS011;32161;48.148;-1.554;2023-04-05T02:41:45;9.93;;;6.72;;
46463;SDS011;32161;48.148;-1.554;2023-04-05T02:44:12;10.80;;;7.55;;
46463;SDS011;32161;48.148;-1.554;2023-04-05T02:46:40;9.23;;;7.68;;
46463;SDS011;32161;48.148;-1.554;2023-04-05T02:49:07;11.48;;;7.65;;
46463;SDS011;32161;48.148;-1.554;2023-04-05T02:51:35;8.48;;;7.20;;
46463;SDS011;32161;48.148;-1.554;2023-04-05T02:54:04;8.40;;;6.82;;
46463;SDS011;32161;48.148;-1.554;2023-04-05T02:56:32;11.50;;;7.30;;
46463;SDS011;32161;48.148;-1.554;2023-04-05T02:58:59;12.95;;;7.88;;
46463;SDS011;32161;48.148;-1.554;2023-04-05T03:01:28;9.02;;;7.55;;
46463;SDS011;32161;48.148;-1.554;2023-04-05T03:03:56;14.18;;;10.27;;
46463;SDS011;32161;48.148;-1.554;2023-04-05T03:06:24;11.23;;;8.38;;
46463;SDS011;32161;48.148;-1.554;2023-04-05T03:08:51;12.15;;;9.30;;
46463;SDS011;32161;48.148;-1.554;2023-04-05T03:11:21;10.77;;;9.18;;
46463;SDS011;32161;48.148;-1.554;2023-04-05T03:13:49;15.75;;;8.70;;
46463;SDS011;32161;48.148;-1.554;2023-04-05T03:16:16;15.07;;;9.40;;
46463;SDS011;32161;48.148;-1.554;2023-04-05T03:18:45;15.15;;;8.45;;
46463;SDS011;32161;48.148;-1.554;2023-04-05T03:21:12;10.88;;;8.05;;
46463;SDS011;32161;48.148;-1.554;2023-04-05T03:23:42;10.63;;;8.43;;
46463;SDS011;32161;48.148;-1.554;2023-04-05T03:26:11;12.35;;;8.90;;
46463;SDS011;32161;48.148;-1.554;2023-04-05T03:28:40;13.15;;;8.50;;
46463;SDS011;32161;48.148;-1.554;2023-04-05T03:31:09;10.75;;;7.85;;
46463;SDS011;32161;48.148;-1.554;2023-04-05T03:33:37;12.52;;;7.68;;
46463;SDS011;32161;48.148;-1.554;2023-04-05T03:36:04;10.57;;;7.75;;
46463;SDS011;32161;48.148;-1.554;2023-04-05T03:38:33;12.60;;;8.68;;
46463;SDS011;32161;48.148;-1.554;2023-04-05T03:41:02;12.38;;;7.57;;
46463;SDS011;32161;48.148;-1.554;2023-04-05T03:43:29;13.15;;;8.27;;
46463;SDS011;32161;48.148;-1.554;2023-04-05T03:45:58;12.93;;;8.43;;
46463;SDS011;32161;48.148;-1.554;2023-04-05T03:48:26;11.73;;;8.40;;
46463;SDS011;32161;48.148;-1.554;2023-04-05T03:50:54;13.20;;;7.70;;
46463;SDS011;32161;48.148;-1.554;2023-04-05T03:53:21;13.07;;;8.75;;
46463;SDS011;32161;48.148;-1.554;2023-04-05T03:55:50;11.50;;;7.97;;
46463;SDS011;32161;48.148;-1.554;2023-04-05T03:58:19;12.98;;;7.82;;
46463;SDS011;32161;48.148;-1.554;2023-04-05T04:00:47;12.48;;;8.30;;
46463;SDS011;32161;48.148;-1.554;2023-04-05T04:03:18;12.52;;;7.97;;
46463;SDS011;32161;48.148;-1.554;2023-04-05T04:05:45;11.75;;;7.28;;
46463;SDS011;32161;48.148;-1.554;2023-04-05T04:08:13;9.77;;;7.57;;
46463;SDS011;32161;48.148;-1.554;2023-04-05T04:10:41;14.65;;;8.85;;
46463;SDS011;32161;48.148;-1.554;2023-04-05T04:13:08;13.05;;;8.93;;
46463;SDS011;32161;48.148;-1.554;2023-04-05T04:15:36;15.60;;;9.20;;
46463;SDS011;32161;48.148;-1.554;2023-04-05T04:18:03;12.65;;;8.90;;
46463;SDS011;32161;48.148;-1.554;2023-04-05T04:20:32;11.82;;;7.75;;
46463;SDS011;32161;48.148;-1.554;2023-04-05T04:23:00;11.50;;;8.65;;
46463;SDS011;32161;48.148;-1.554;2023-04-05T04:25:28;12.93;;;8.82;;
46463;SDS011;32161;48.148;-1.554;2023-04-05T04:27:55;11.82;;;7.80;;
46463;SDS011;32161;48.148;-1.554;2023-04-05T04:30:23;11.90;;;8.35;;
46463;SDS011;32161;48.148;-1.554;2023-04-05T04:32:51;12.55;;;8.55;;
46463;SDS011;32161;48.148;-1.554;2023-04-05T04:35:19;13.50;;;9.73;;
46463;SDS011;32161;48.148;-1.554;2023-04-05T04:37:53;10.15;;;8.55;;
46463;SDS011;32161;48.148;-1.554;2023-04-05T04:40:23;10.13;;;8.23;;
46463;SDS011;32161;48.148;-1.554;2023-04-05T04:42:54;10.88;;;8.32;;
46463;SDS011;32161;48.148;-1.554;2023-04-05T04:45:24;21.33;;;10.82;;
46463;SDS011;32161;48.148;-1.554;2023-04-05T04:47:51;10.52;;;7.90;;
46463;SDS011;32161;48.148;-1.554;2023-04-05T04:50:19;14.93;;;9.25;;
46463;SDS011;32161;48.148;-1.554;2023-04-05T04:52:47;11.98;;;9.45;;
46463;SDS011;32161;48.148;-1.554;2023-04-05T04:55:16;12.77;;;9.05;;
46463;SDS011;32161;48.148;-1.554;2023-04-05T04:57:50;12.35;;;9.18;;
46463;SDS011;32161;48.148;-1.554;2023-04-05T05:00:18;17.55;;;10.13;;
46463;SDS011;32161;48.148;-1.554;2023-04-05T05:02:48;17.25;;;10.20;;
46463;SDS011;32161;48.148;-1.554;2023-04-05T05:05:17;12.82;;;10.00;;
46463;SDS011;32161;48.148;-1.554;2023-04-05T05:07:47;13.63;;;10.32;;
46463;SDS011;32161;48.148;-1.554;2023-04-05T05:10:18;12.27;;;9.52;;
46463;SDS011;32161;48.148;-1.554;2023-04-05T05:12:46;12.55;;;9.95;;
46463;SDS011;32161;48.148;-1.554;2023-04-05T05:15:13;15.35;;;9.25;;
46463;SDS011;32161;48.148;-1.554;2023-04-05T05:17:41;11.23;;;10.02;;
46463;SDS011;32161;48.148;-1.554;2023-04-05T05:20:09;13.05;;;9.75;;
46463;SDS011;32161;48.148;-1.554;2023-04-05T05:22:38;13.13;;;10.25;;
46463;SDS011;32161;48.148;-1.554;2023-04-05T05:25:07;14.95;;;9.90;;
46463;SDS011;32161;48.148;-1.554;2023-04-05T05:27:37;12.55;;;9.70;;
46463;SDS011;32161;48.148;-1.554;2023-04-05T05:30:06;14.20;;;10.10;;
46463;SDS011;32161;48.148;-1.554;2023-04-05T05:32:35;14.38;;;10.55;;
46463;SDS011;32161;48.148;-1.554;2023-04-05T05:35:03;16.90;;;9.48;;
46463;SDS011;32161;48.148;-1.554;2023-04-05T05:37:32;9.35;;;8.30;;
46463;SDS011;32161;48.148;-1.554;2023-04-05T05:40:00;9.85;;;7.80;;
46463;SDS011;32161;48.148;-1.554;2023-04-05T05:42:29;9.63;;;7.80;;
46463;SDS011;32161;48.148;-1.554;2023-04-05T05:45:01;9.93;;;7.90;;
46463;SDS011;32161;48.148;-1.554;2023-04-05T05:47:31;8.57;;;7.45;;
46463;SDS011;32161;48.148;-1.554;2023-04-05T05:49:59;11.13;;;8.45;;
46463;SDS011;32161;48.148;-1.554;2023-04-05T05:52:27;17.45;;;8.48;;
46463;SDS011;32161;48.148;-1.554;2023-04-05T05:54:55;9.55;;;7.68;;
46463;SDS011;32161;48.148;-1.554;2023-04-05T05:57:22;9.18;;;8.25;;
46463;SDS011;32161;48.148;-1.554;2023-04-05T05:59:51;8.93;;;7.18;;
46463;SDS011;32161;48.148;-1.554;2023-04-05T06:02:20;9.38;;;7.88;;
46463;SDS011;32161;48.148;-1.554;2023-04-05T06:04:48;15.57;;;9.15;;
46463;SDS011;32161;48.148;-1.554;2023-04-05T06:07:15;14.73;;;10.57;;
46463;SDS011;32161;48.148;-1.554;2023-04-05T06:09:43;17.27;;;10.30;;
46463;SDS011;32161;48.148;-1.554;2023-04-05T06:12:11;15.63;;;9.77;;
46463;SDS011;32161;48.148;-1.554;2023-04-05T06:14:39;13.65;;;10.43;;
46463;SDS011;32161;48.148;-1.554;2023-04-05T06:17:06;15.63;;;9.85;;
46463;SDS011;32161;48.148;-1.554;2023-04-05T06:19:35;15.35;;;9.48;;
46463;SDS011;32161;48.148;-1.554;2023-04-05T06:22:03;14.07;;;9.25;;
46463;SDS011;32161;48.148;-1.554;2023-04-05T06:24:31;18.25;;;10.43;;
46463;SDS011;32161;48.148;-1.554;2023-04-05T06:26:59;14.30;;;9.57;;
46463;SDS011;32161;48.148;-1.554;2023-04-05T06:29:27;13.52;;;8.93;;
46463;SDS011;32161;48.148;-1.554;2023-04-05T06:31:55;13.30;;;9.82;;
46463;SDS011;32161;48.148;-1.554;2023-04-05T06:34:23;15.55;;;9.07;;
46463;SDS011;32161;48.148;-1.554;2023-04-05T06:36:52;12.32;;;9.52;;
46463;SDS011;32161;48.148;-1.554;2023-04-05T06:39:20;14.05;;;9.95;;
46463;SDS011;32161;48.148;-1.554;2023-04-05T06:41:47;16.85;;;10.52;;
46463;SDS011;32161;48.148;-1.554;2023-04-05T06:44:15;19.23;;;10.48;;
46463;SDS011;32161;48.148;-1.554;2023-04-05T06:46:42;18.08;;;10.98;;
46463;SDS011;32161;48.148;-1.554;2023-04-05T06:49:10;16.83;;;11.38;;
46463;SDS011;32161;48.148;-1.554;2023-04-05T06:51:38;19.92;;;11.70;;
46463;SDS011;32161;48.148;-1.554;2023-04-05T06:54:07;20.73;;;12.40;;
46463;SDS011;32161;48.148;-1.554;2023-04-05T06:56:36;16.92;;;12.00;;
46463;SDS011;32161;48.148;-1.554;2023-04-05T06:59:03;20.02;;;12.70;;
46463;SDS011;32161;48.148;-1.554;2023-04-05T07:01:31;23.23;;;13.60;;
46463;SDS011;32161;48.148;-1.554;2023-04-05T07:03:58;18.63;;;12.20;;
46463;SDS011;32161;48.148;-1.554;2023-04-05T07:06:26;21.73;;;12.68;;
46463;SDS011;32161;48.148;-1.554;2023-04-05T07:08:53;18.52;;;12.35;;
46463;SDS011;32161;48.148;-1.554;2023-04-05T07:11:22;23.00;;;12.75;;
46463;SDS011;32161;48.148;-1.554;2023-04-05T07:13:51;18.58;;;11.95;;
46463;SDS011;32161;48.148;-1.554;2023-04-05T07:16:19;23.38;;;12.82;;
46463;SDS011;32161;48.148;-1.554;2023-04-05T07:18:47;19.95;;;12.27;;
46463;SDS011;32161;48.148;-1.554;2023-04-05T07:21:15;17.50;;;12.40;;
46463;SDS011;32161;48.148;-1.554;2023-04-05T07:23:43;17.60;;;12.00;;
46463;SDS011;32161;48.148;-1.554;2023-04-05T07:26:10;23.33;;;12.70;;
46463;SDS011;32161;48.148;-1.554;2023-04-05T07:28:39;19.27;;;12.68;;
46463;SDS011;32161;48.148;-1.554;2023-04-05T07:31:07;22.33;;;12.15;;
46463;SDS011;32161;48.148;-1.554;2023-04-05T07:33:34;18.48;;;13.18;;
46463;SDS011;32161;48.148;-1.554;2023-04-05T07:36:02;19.63;;;11.60;;
46463;SDS011;32161;48.148;-1.554;2023-04-05T07:38:30;17.92;;;12.68;;
46463;SDS011;32161;48.148;-1.554;2023-04-05T07:40:58;17.98;;;12.05;;
46463;SDS011;32161;48.148;-1.554;2023-04-05T07:43:25;17.85;;;12.65;;
46463;SDS011;32161;48.148;-1.554;2023-04-05T07:46:01;20.42;;;12.23;;
46463;SDS011;32161;48.148;-1.554;2023-04-05T07:48:29;21.02;;;12.40;;
46463;SDS011;32161;48.148;-1.554;2023-04-05T07:51:01;18.40;;;12.35;;
46463;SDS011;32161;48.148;-1.554;2023-04-05T07:53:31;20.13;;;12.45;;
46463;SDS011;32161;48.148;-1.554;2023-04-05T07:56:02;22.30;;;12.73;;
46463;SDS011;32161;48.148;-1.554;2023-04-05T07:58:30;17.75;;;12.10;;
46463;SDS011;32161;48.148;-1.554;2023-04-05T08:00:59;21.95;;;11.80;;
46463;SDS011;32161;48.148;-1.554;2023-04-05T08:03:29;15.20;;;11.93;;
46463;SDS011;32161;48.148;-1.554;2023-04-05T08:05:59;19.92;;;11.88;;
46463;SDS011;32161;48.148;-1.554;2023-04-05T08:08:36;23.42;;;12.10;;
46463;SDS011;32161;48.148;-1.554;2023-04-05T08:11:04;21.50;;;12.43;;
46463;SDS011;32161;48.148;-1.554;2023-04-05T08:13:32;18.80;;;11.43;;
46463;SDS011;32161;48.148;-1.554;2023-04-05T08:16:02;19.13;;;11.18;;
46463;SDS011;32161;48.148;-1.554;2023-04-05T08:18:30;18.10;;;12.30;;
46463;SDS011;32161;48.148;-1.554;2023-04-05T08:20:57;16.85;;;11.63;;
46463;SDS011;32161;48.148;-1.554;2023-04-05T08:23:25;14.70;;;12.15;;
46463;SDS011;32161;48.148;-1.554;2023-04-05T08:25:53;15.43;;;11.13;;
46463;SDS011;32161;48.148;-1.554;2023-04-05T08:28:21;22.95;;;11.93;;
46463;SDS011;32161;48.148;-1.554;2023-04-05T08:30:51;17.48;;;11.35;;
46463;SDS011;32161;48.148;-1.554;2023-04-05T08:33:21;16.75;;;11.75;;
46463;SDS011;32161;48.148;-1.554;2023-04-05T08:35:50;15.60;;;12.02;;
46463;SDS011;32161;48.148;-1.554;2023-04-05T08:38:17;17.83;;;12.13;;
46463;SDS011;32161;48.148;-1.554;2023-04-05T08:40:46;14.20;;;10.70;;
46463;SDS011;32161;48.148;-1.554;2023-04-05T08:43:17;20.85;;;11.18;;
46463;SDS011;32161;48.148;-1.554;2023-04-05T08:45:51;20.33;;;11.25;;
46463;SDS011;32161;48.148;-1.554;2023-04-05T08:48:22;16.52;;;10.63;;
46463;SDS011;32161;48.148;-1.554;2023-04-05T08:50:51;14.63;;;11.18;;
46463;SDS011;32161;48.148;-1.554;2023-04-05T08:53:20;15.93;;;11.50;;
46463;SDS011;32161;48.148;-1.554;2023-04-05T08:55:48;13.23;;;10.55;;
46463;SDS011;32161;48.148;-1.554;2023-04-05T08:58:19;25.45;;;11.00;;
46463;SDS011;32161;48.148;-1.554;2023-04-05T09:00:48;17.05;;;10.48;;
46463;SDS011;32161;48.148;-1.554;2023-04-05T09:03:17;15.75;;;11.43;;
46463;SDS011;32161;48.148;-1.554;2023-04-05T09:05:49;14.95;;;10.80;;
46463;SDS011;32161;48.148;-1.554;2023-04-05T09:08:19;14.25;;;10.77;;
46463;SDS011;32161;48.148;-1.554;2023-04-05T09:10:48;14.73;;;11.07;;
46463;SDS011;32161;48.148;-1.554;2023-04-05T09:13:16;15.57;;;11.60;;
46463;SDS011;32161;48.148;-1.554;2023-04-05T09:15:45;14.93;;;10.43;;
46463;SDS011;32161;48.148;-1.554;2023-04-05T09:18:13;18.30;;;10.65;;
46463;SDS011;32161;48.148;-1.554;2023-04-05T09:20:42;15.60;;;10.13;;
46463;SDS011;32161;48.148;-1.554;2023-04-05T09:23:10;14.77;;;10.10;;
46463;SDS011;32161;48.148;-1.554;2023-04-05T09:25:38;17.55;;;10.43;;
46463;SDS011;32161;48.148;-1.554;2023-04-05T09:28:07;14.95;;;10.02;;
46463;SDS011;32161;48.148;-1.554;2023-04-05T09:30:36;15.43;;;10.98;;
46463;SDS011;32161;48.148;-1.554;2023-04-05T09:33:06;15.43;;;10.00;;
46463;SDS011;32161;48.148;-1.554;2023-04-05T09:38:04;12.73;;;10.13;;
46463;SDS011;32161;48.148;-1.554;2023-04-05T09:40:42;11.93;;;10.35;;
46463;SDS011;32161;48.148;-1.554;2023-04-05T09:43:12;12.27;;;10.00;;
46463;SDS011;32161;48.148;-1.554;2023-04-05T09:45:56;17.67;;;10.73;;
46463;SDS011;32161;48.148;-1.554;2023-04-05T09:48:24;16.60;;;10.77;;
46463;SDS011;32161;48.148;-1.554;2023-04-05T09:51:12;15.75;;;9.60;;
46463;SDS011;32161;48.148;-1.554;2023-04-05T09:56:34;13.10;;;10.73;;
46463;SDS011;32161;48.148;-1.554;2023-04-05T09:59:05;16.30;;;11.43;;
46463;SDS011;32161;48.148;-1.554;2023-04-05T10:01:34;12.43;;;9.90;;
46463;SDS011;32161;48.148;-1.554;2023-04-05T10:04:02;14.75;;;9.73;;
46463;SDS011;32161;48.148;-1.554;2023-04-05T10:06:33;15.55;;;9.75;;
46463;SDS011;32161;48.148;-1.554;2023-04-05T10:09:02;15.38;;;10.05;;
46463;SDS011;32161;48.148;-1.554;2023-04-05T10:11:31;16.52;;;9.52;;
46463;SDS011;32161;48.148;-1.554;2023-04-05T10:14:01;11.95;;;9.90;;
46463;SDS011;32161;48.148;-1.554;2023-04-05T10:16:32;12.85;;;9.95;;
46463;SDS011;32161;48.148;-1.554;2023-04-05T10:19:04;13.23;;;9.32;;
46463;SDS011;32161;48.148;-1.554;2023-04-05T10:21:34;12.57;;;9.25;;
46463;SDS011;32161;48.148;-1.554;2023-04-05T10:24:08;12.45;;;9.57;;
46463;SDS011;32161;48.148;-1.554;2023-04-05T10:26:53;14.10;;;9.25;;
46463;SDS011;32161;48.148;-1.554;2023-04-05T10:29:33;12.27;;;8.90;;
46463;SDS011;32161;48.148;-1.554;2023-04-05T10:32:10;10.55;;;9.45;;
46463;SDS011;32161;48.148;-1.554;2023-04-05T10:34:47;14.07;;;9.30;;
46463;SDS011;32161;48.148;-1.554;2023-04-05T10:37:24;14.13;;;8.75;;
46463;SDS011;32161;48.148;-1.554;2023-04-05T10:40:02;13.55;;;9.05;;
46463;SDS011;32161;48.148;-1.554;2023-04-05T10:42:39;10.05;;;9.00;;
46463;SDS011;32161;48.148;-1.554;2023-04-05T10:45:10;12.90;;;10.18;;
46463;SDS011;32161;48.148;-1.554;2023-04-05T10:47:43;13.80;;;8.85;;
46463;SDS011;32161;48.148;-1.554;2023-04-05T10:50:16;13.23;;;9.40;;
46463;SDS011;32161;48.148;-1.554;2023-04-05T10:52:49;18.48;;;9.48;;
46463;SDS011;32161;48.148;-1.554;2023-04-05T10:55:18;10.57;;;8.00;;
46463;SDS011;32161;48.148;-1.554;2023-04-05T10:57:48;10.73;;;8.20;;
46463;SDS011;32161;48.148;-1.554;2023-04-05T11:00:16;14.80;;;8.73;;
46463;SDS011;32161;48.148;-1.554;2023-04-05T11:02:46;11.30;;;7.28;;
46463;SDS011;32161;48.148;-1.554;2023-04-05T11:05:29;14.13;;;8.48;;
46463;SDS011;32161;48.148;-1.554;2023-04-05T11:07:59;13.23;;;8.20;;
46463;SDS011;32161;48.148;-1.554;2023-04-05T11:10:31;11.73;;;8.45;;
46463;SDS011;32161;48.148;-1.554;2023-04-05T11:13:04;11.88;;;8.23;;
46463;SDS011;32161;48.148;-1.554;2023-04-05T11:15:35;13.50;;;7.30;;
46463;SDS011;32161;48.148;-1.554;2023-04-05T11:18:07;13.05;;;8.57;;
46463;SDS011;32161;48.148;-1.554;2023-04-05T11:20:40;12.68;;;8.65;;
46463;SDS011;32161;48.148;-1.554;2023-04-05T11:23:10;11.48;;;7.80;;
46463;SDS011;32161;48.148;-1.554;2023-04-05T11:25:39;9.77;;;6.57;;
46463;SDS011;32161;48.148;-1.554;2023-04-05T11:28:23;9.77;;;7.28;;
46463;SDS011;32161;48.148;-1.554;2023-04-05T11:30:57;10.52;;;8.00;;
46463;SDS011;32161;48.148;-1.554;2023-04-05T11:33:58;10.10;;;7.25;;
46463;SDS011;32161;48.148;-1.554;2023-04-05T11:36:37;10.00;;;7.60;;
46463;SDS011;32161;48.148;-1.554;2023-04-05T11:39:22;12.98;;;7.90;;
46463;SDS011;32161;48.148;-1.554;2023-04-05T11:41:58;12.52;;;8.18;;
46463;SDS011;32161;48.148;-1.554;2023-04-05T11:44:29;9.82;;;7.40;;
46463;SDS011;32161;48.148;-1.554;2023-04-05T11:47:07;9.38;;;7.30;;
46463;SDS011;32161;48.148;-1.554;2023-04-05T11:49:36;9.65;;;6.95;;
46463;SDS011;32161;48.148;-1.554;2023-04-05T11:52:11;7.80;;;6.88;;
46463;SDS011;32161;48.148;-1.554;2023-04-05T11:54:41;10.73;;;7.13;;
46463;SDS011;32161;48.148;-1.554;2023-04-05T11:57:14;7.40;;;6.30;;
46463;SDS011;32161;48.148;-1.554;2023-04-05T11:59:49;7.68;;;5.75;;
46463;SDS011;32161;48.148;-1.554;2023-04-05T12:04:52;9.05;;;6.50;;
46463;SDS011;32161;48.148;-1.554;2023-04-05T12:07:23;8.35;;;6.80;;
46463;SDS011;32161;48.148;-1.554;2023-04-05T12:09:57;8.45;;;6.43;;
46463;SDS011;32161;48.148;-1.554;2023-04-05T12:12:26;13.50;;;7.60;;
46463;SDS011;32161;48.148;-1.554;2023-04-05T12:14:59;10.70;;;7.57;;
46463;SDS011;32161;48.148;-1.554;2023-04-05T12:17:38;11.30;;;7.88;;
46463;SDS011;32161;48.148;-1.554;2023-04-05T12:20:08;9.32;;;7.43;;
46463;SDS011;32161;48.148;-1.554;2023-04-05T12:22:39;11.02;;;7.63;;
46463;SDS011;32161;48.148;-1.554;2023-04-05T12:25:08;13.85;;;6.82;;
46463;SDS011;32161;48.148;-1.554;2023-04-05T12:27:37;8.10;;;7.10;;
46463;SDS011;32161;48.148;-1.554;2023-04-05T12:30:14;7.97;;;6.50;;
46463;SDS011;32161;48.148;-1.554;2023-04-05T12:32:43;11.43;;;6.93;;
46463;SDS011;32161;48.148;-1.554;2023-04-05T12:35:14;8.70;;;6.35;;
46463;SDS011;32161;48.148;-1.554;2023-04-05T12:37:43;11.23;;;6.65;;
46463;SDS011;32161;48.148;-1.554;2023-04-05T12:40:11;7.13;;;6.43;;
46463;SDS011;32161;48.148;-1.554;2023-04-05T12:42:40;9.20;;;7.15;;
46463;SDS011;32161;48.148;-1.554;2023-04-05T12:45:11;10.00;;;6.88;;
46463;SDS011;32161;48.148;-1.554;2023-04-05T12:47:48;10.73;;;7.40;;
46463;SDS011;32161;48.148;-1.554;2023-04-05T12:50:18;8.48;;;6.85;;
46463;SDS011;32161;48.148;-1.554;2023-04-05T12:52:52;10.30;;;6.75;;
46463;SDS011;32161;48.148;-1.554;2023-04-05T12:55:21;8.77;;;6.40;;
46463;SDS011;32161;48.148;-1.554;2023-04-05T12:57:51;8.32;;;7.13;;
46463;SDS011;32161;48.148;-1.554;2023-04-05T13:00:22;7.88;;;7.03;;
46463;SDS011;32161;48.148;-1.554;2023-04-05T13:02:53;10.05;;;7.68;;
46463;SDS011;32161;48.148;-1.554;2023-04-05T13:05:23;8.93;;;6.95;;
46463;SDS011;32161;48.148;-1.554;2023-04-05T13:07:53;10.05;;;7.57;;
46463;SDS011;32161;48.148;-1.554;2023-04-05T13:10:21;7.70;;;7.00;;
46463;SDS011;32161;48.148;-1.554;2023-04-05T13:12:50;7.30;;;6.60;;
46463;SDS011;32161;48.148;-1.554;2023-04-05T13:15:18;9.23;;;7.00;;
46463;SDS011;32161;48.148;-1.554;2023-04-05T13:17:48;8.25;;;6.82;;
46463;SDS011;32161;48.148;-1.554;2023-04-05T13:20:17;7.30;;;6.57;;
46463;SDS011;32161;48.148;-1.554;2023-04-05T13:22:45;8.93;;;6.72;;
46463;SDS011;32161;48.148;-1.554;2023-04-05T13:25:13;10.25;;;7.65;;
46463;SDS011;32161;48.148;-1.554;2023-04-05T13:27:41;7.72;;;6.95;;
46463;SDS011;32161;48.148;-1.554;2023-04-05T13:30:09;8.73;;;7.35;;
46463;SDS011;32161;48.148;-1.554;2023-04-05T13:32:37;7.93;;;7.00;;
46463;SDS011;32161;48.148;-1.554;2023-04-05T13:35:07;11.00;;;7.90;;
46463;SDS011;32161;48.148;-1.554;2023-04-05T13:37:35;7.53;;;6.65;;
46463;SDS011;32161;48.148;-1.554;2023-04-05T13:40:04;7.90;;;6.53;;
46463;SDS011;32161;48.148;-1.554;2023-04-05T13:42:33;11.35;;;6.95;;
46463;SDS011;32161;48.148;-1.554;2023-04-05T13:45:01;8.48;;;5.93;;
46463;SDS011;32161;48.148;-1.554;2023-04-05T13:47:29;10.85;;;7.10;;
46463;SDS011;32161;48.148;-1.554;2023-04-05T13:49:57;9.70;;;7.43;;
46463;SDS011;32161;48.148;-1.554;2023-04-05T13:52:26;7.25;;;6.55;;
46463;SDS011;32161;48.148;-1.554;2023-04-05T13:54:54;11.02;;;7.07;;
46463;SDS011;32161;48.148;-1.554;2023-04-05T13:57:21;10.02;;;6.97;;
46463;SDS011;32161;48.148;-1.554;2023-04-05T13:59:49;7.63;;;6.70;;
46463;SDS011;32161;48.148;-1.554;2023-04-05T14:02:16;7.80;;;6.80;;
46463;SDS011;32161;48.148;-1.554;2023-04-05T14:04:49;12.48;;;6.70;;
46463;SDS011;32161;48.148;-1.554;2023-04-05T14:07:17;6.97;;;6.28;;
46463;SDS011;32161;48.148;-1.554;2023-04-05T14:09:47;8.45;;;6.50;;
46463;SDS011;32161;48.148;-1.554;2023-04-05T14:12:15;7.20;;;6.43;;
46463;SDS011;32161;48.148;-1.554;2023-04-05T14:14:43;6.78;;;5.57;;
46463;SDS011;32161;48.148;-1.554;2023-04-05T14:17:10;5.85;;;5.32;;
46463;SDS011;32161;48.148;-1.554;2023-04-05T14:19:38;7.55;;;5.50;;
46463;SDS011;32161;48.148;-1.554;2023-04-05T14:22:06;7.03;;;6.25;;
46463;SDS011;32161;48.148;-1.554;2023-04-05T14:24:33;6.90;;;5.93;;
46463;SDS011;32161;48.148;-1.554;2023-04-05T14:27:03;9.57;;;5.88;;
46463;SDS011;32161;48.148;-1.554;2023-04-05T14:29:30;7.43;;;6.07;;
46463;SDS011;32161;48.148;-1.554;2023-04-05T14:31:58;8.93;;;6.93;;
46463;SDS011;32161;48.148;-1.554;2023-04-05T14:34:26;6.63;;;6.07;;
46463;SDS011;32161;48.148;-1.554;2023-04-05T14:36:53;6.90;;;6.10;;
46463;SDS011;32161;48.148;-1.554;2023-04-05T14:39:22;8.10;;;6.18;;
46463;SDS011;32161;48.148;-1.554;2023-04-05T14:41:50;13.57;;;6.10;;
46463;SDS011;32161;48.148;-1.554;2023-04-05T14:44:19;10.45;;;5.82;;
46463;SDS011;32161;48.148;-1.554;2023-04-05T14:46:48;7.43;;;6.72;;